Time;durP1;ratioP1;P1;durP2;ratioP2;P2;SDS_P1;SDS_P2;PMS_P1;PMS_P2;Temp;Humidity;BMP_temperature;BMP_pressure;BME280_temperature;BME280_humidity;BME280_pressure;Samples;Min_cycle;Max_cycle;Signal;HPM_P1;HPM_P2
2022/10/25 00:00:39;;;;;;;2.42;0.82;;;;;;;14.46;100.00;100236.75;5111376;28;20034;-62
2022/10/25 00:03:10;;;;;;;2.67;1.20;;;;;;;14.40;100.00;100215.59;5110538;28;20432;-61
2022/10/25 00:05:37;;;;;;;3.03;0.98;;;;;;;14.45;100.00;100235.00;5109993;28;20020;-61
2022/10/25 00:08:03;;;;;;;1.13;0.70;;;;;;;14.41;100.00;100226.22;5110571;28;20475;-62
2022/10/25 00:10:29;;;;;;;4.18;0.77;;;;;;;14.41;100.00;100233.41;5110416;28;20172;-61
2022/10/25 00:12:55;;;;;;;5.45;1.05;;;;;;;14.41;100.00;100244.13;5110448;28;20532;-61
2022/10/25 00:15:20;;;;;;;5.50;1.40;;;;;;;14.40;100.00;100239.69;5110654;28;20034;-61
2022/10/25 00:17:46;;;;;;;3.55;1.10;;;;;;;14.39;100.00;100243.31;5111116;28;20059;-62
2022/10/25 00:20:12;;;;;;;10.63;1.45;;;;;;;14.41;100.00;100236.09;5111290;28;20027;-61
2022/10/25 00:22:38;;;;;;;1.95;1.08;;;;;;;14.43;100.00;100236.91;5111239;28;20465;-62
2022/10/25 00:25:05;;;;;;;4.28;1.13;;;;;;;14.45;100.00;100240.34;5110939;28;20151;-61
2022/10/25 00:27:31;;;;;;;5.13;1.20;;;;;;;14.44;100.00;100236.81;5111369;28;20019;-62
2022/10/25 00:29:56;;;;;;;3.65;1.40;;;;;;;14.43;100.00;100234.22;5111216;28;20084;-61
2022/10/25 00:32:21;;;;;;;2.38;1.00;;;;;;;14.35;100.00;100226.50;5111072;28;20030;-61
2022/10/25 00:34:47;;;;;;;4.88;1.52;;;;;;;14.40;100.00;100228.97;5110868;28;20027;-61
2022/10/25 00:37:12;;;;;;;3.35;1.15;;;;;;;14.40;100.00;100218.28;5111094;28;20019;-61
2022/10/25 00:39:38;;;;;;;3.75;1.30;;;;;;;14.40;100.00;100223.63;5110926;28;20047;-62
2022/10/25 00:42:03;;;;;;;2.42;1.23;;;;;;;14.36;100.00;100224.72;5111056;28;20541;-62
2022/10/25 00:44:34;;;;;;;4.32;1.30;;;;;;;14.36;100.00;100228.25;5110841;28;20594;-62
2022/10/25 00:47:23;;;;;;;6.47;1.40;;;;;;;14.35;100.00;100222.97;5110315;28;20080;-61
2022/10/25 00:50:09;;;;;;;1.88;1.08;;;;;;;14.36;100.00;100224.72;5082188;28;20036;-62
2022/10/25 00:52:37;;;;;;;4.70;1.30;;;;;;;14.34;100.00;100224.78;5090613;28;20166;-61
2022/10/25 00:55:05;;;;;;;2.78;1.25;;;;;;;14.39;100.00;100228.13;5090869;28;20745;-61
2022/10/25 00:57:36;;;;;;;3.03;1.17;;;;;;;14.41;100.00;100231.59;5090457;28;20101;-61
2022/10/25 01:00:34;;;;;;;1.90;1.30;;;;;;;14.44;100.00;100226.13;5090691;28;20026;-61
2022/10/25 01:03:00;;;;;;;4.32;1.75;;;;;;;14.45;100.00;100226.97;5093110;28;20024;-70
2022/10/25 01:05:26;;;;;;;2.40;1.40;;;;;;;14.49;100.00;100233.94;5110873;28;20382;-69
2022/10/25 01:07:51;;;;;;;3.50;1.30;;;;;;;14.52;100.00;100231.13;5110725;28;20039;-70
2022/10/25 01:10:17;;;;;;;2.47;1.35;;;;;;;14.52;100.00;100234.66;5110741;28;20027;-68
2022/10/25 01:12:42;;;;;;;4.55;1.52;;;;;;;14.56;100.00;100245.22;5110783;28;20028;-69
2022/10/25 01:15:09;;;;;;;3.42;1.65;;;;;;;14.54;100.00;100242.63;5110601;28;20046;-70
2022/10/25 01:17:54;;;;;;;5.97;1.80;;;;;;;14.58;100.00;100241.53;5112628;28;20126;-70
2022/10/25 01:20:28;;;;;;;5.57;1.83;;;;;;;14.60;100.00;100242.34;5114322;28;20020;-70
2022/10/25 01:23:27;;;;;;;6.05;1.52;;;;;;;14.60;100.00;100236.97;5113747;28;20031;-70
2022/10/25 01:26:01;;;;;;;3.10;1.60;;;;;;;14.60;100.00;100241.47;5093957;28;20028;-70
2022/10/25 01:28:52;;;;;;;3.40;1.73;;;;;;;14.60;100.00;100239.66;5093928;28;20043;-69
2022/10/25 01:31:25;;;;;;;2.90;1.50;;;;;;;14.56;100.00;100239.88;5093342;28;20040;-69
2022/10/25 01:34:04;;;;;;;5.60;1.92;;;;;;;14.51;100.00;100237.41;5093202;28;20031;-70
2022/10/25 01:37:00;;;;;;;7.60;1.63;;;;;;;14.53;100.00;100243.53;5093209;28;20096;-69
2022/10/25 01:39:34;;;;;;;5.47;1.95;;;;;;;14.57;100.00;100241.59;5111887;28;20482;-69
2022/10/25 01:42:18;;;;;;;4.68;1.70;;;;;;;14.54;100.00;100231.91;5113498;28;20030;-69
2022/10/25 01:45:08;;;;;;;4.75;1.30;;;;;;;14.54;100.00;100234.59;5113349;28;20023;-70
2022/10/25 01:48:20;;;;;;;4.70;1.75;;;;;;;14.54;100.00;100237.28;5113974;28;20026;-70
2022/10/25 01:50:47;;;;;;;5.63;2.17;;;;;;;14.53;100.00;100240.88;5110156;28;20040;-70
2022/10/25 01:53:13;;;;;;;4.22;1.42;;;;;;;14.51;100.00;100246.28;5113916;28;20098;-70
2022/10/25 01:55:59;;;;;;;4.00;1.70;;;;;;;14.51;100.00;100237.41;5113294;28;20039;-69
2022/10/25 01:58:43;;;;;;;5.63;1.42;;;;;;;14.51;100.00;100234.75;5113504;28;20039;-68
2022/10/25 02:01:11;;;;;;;;;;;;;;;14.52;100.00;100237.34;5114326;28;20027;-69
2022/10/25 02:03:49;;;;;;;5.28;1.70;;;;;;;14.56;100.00;100242.56;5113369;28;20002;-69
2022/10/25 02:06:24;;;;;;;4.13;1.55;;;;;;;14.52;100.00;100233.78;5113763;28;20024;-70
2022/10/25 02:08:59;;;;;;;4.57;1.73;;;;;;;14.56;100.00;100231.84;5113569;28;20027;-70
2022/10/25 02:11:28;;;;;;;6.25;2.10;;;;;;;14.53;100.00;100239.06;5113466;28;20066;-70
2022/10/25 02:14:00;;;;;;;5.85;2.58;;;;;;;14.50;100.00;100239.22;5113268;28;20494;-69
2022/10/25 02:16:29;;;;;;;5.63;2.22;;;;;;;14.47;100.00;100234.00;5113517;28;20028;-70
2022/10/25 02:19:01;;;;;;;4.88;1.50;;;;;;;14.47;100.00;100231.31;5113083;28;20066;-69
2022/10/25 02:21:29;;;;;;;3.45;1.58;;;;;;;14.46;100.00;100232.25;5113311;28;20026;-70
2022/10/25 02:23:57;;;;;;;2.95;1.90;;;;;;;14.44;100.00;100231.47;5112985;28;20027;-70
2022/10/25 02:26:24;;;;;;;2.88;1.70;;;;;;;14.40;100.00;100221.81;5113487;28;20024;-70
2022/10/25 02:28:50;;;;;;;6.18;2.08;;;;;;;14.37;100.00;100224.66;5112772;28;20493;-68
2022/10/25 02:31:18;;;;;;;4.40;2.40;;;;;;;14.36;100.00;100227.41;5113137;28;20024;-71
2022/10/25 02:33:45;;;;;;;4.85;1.63;;;;;;;14.32;100.00;100220.44;5112984;28;20360;-70
2022/10/25 02:36:12;;;;;;;3.08;2.03;;;;;;;14.28;100.00;100224.19;5113092;28;20104;-70
2022/10/25 02:38:38;;;;;;;5.68;1.95;;;;;;;14.27;100.00;100227.78;5112927;28;20080;-71
2022/10/25 02:41:05;;;;;;;4.80;1.88;;;;;;;14.23;100.00;100231.53;5112993;28;20031;-70
2022/10/25 02:43:30;;;;;;;3.63;1.88;;;;;;;14.20;100.00;100237.00;5113086;28;20043;-68
2022/10/25 02:45:56;;;;;;;5.30;1.88;;;;;;;14.16;100.00;100233.59;5112895;28;20020;-70
2022/10/25 02:48:21;;;;;;;6.47;1.73;;;;;;;14.14;100.00;100234.56;5113088;28;20058;-70
2022/10/25 02:50:47;;;;;;;5.82;1.90;;;;;;;14.13;100.00;100235.53;5113338;28;20598;-70
2022/10/25 02:53:13;;;;;;;5.50;1.88;;;;;;;14.12;100.00;100228.41;5112445;28;20031;-70
2022/10/25 02:55:38;;;;;;;3.60;2.00;;;;;;;14.12;100.00;100233.78;5112606;28;20080;-71
2022/10/25 02:58:04;;;;;;;3.05;1.92;;;;;;;14.09;100.00;100228.56;5112276;28;20048;-70
2022/10/25 03:00:29;;;;;;;6.10;1.73;;;;;;;14.09;100.00;100228.56;5112480;28;20065;-70
2022/10/25 03:02:55;;;;;;;5.60;1.73;;;;;;;14.07;100.00;100220.59;5112555;28;20039;-70
2022/10/25 03:05:20;;;;;;;5.18;1.73;;;;;;;14.05;100.00;100235.00;5112211;28;20535;-70
2022/10/25 03:07:45;;;;;;;4.70;1.90;;;;;;;14.05;100.00;100235.00;5112074;28;20071;-70
2022/10/25 03:10:11;;;;;;;4.90;1.83;;;;;;;14.03;100.00;100228.84;5112368;28;20151;-70
2022/10/25 03:12:36;;;;;;;2.55;1.58;;;;;;;13.99;100.00;100237.91;5112353;28;20027;-70
2022/10/25 03:15:02;;;;;;;5.25;2.03;;;;;;;14.01;100.00;100238.72;5112038;28;20031;-69
2022/10/25 03:17:27;;;;;;;8.18;1.90;;;;;;;13.98;100.00;100238.84;5112020;28;20031;-69
2022/10/25 03:19:53;;;;;;;5.38;1.70;;;;;;;13.98;100.00;100236.19;5112199;28;20028;-70
2022/10/25 03:22:18;;;;;;;6.38;2.15;;;;;;;13.98;100.00;100234.38;5111588;28;20024;-69
2022/10/25 03:24:43;;;;;;;5.63;2.10;;;;;;;13.98;100.00;100236.19;5111124;28;20019;-70
2022/10/25 03:27:12;;;;;;;9.38;2.30;;;;;;;13.96;100.00;100232.69;5110715;28;20019;-70
2022/10/25 03:29:37;;;;;;;3.47;1.65;;;;;;;13.94;100.00;100234.56;5110943;28;20024;-70
2022/10/25 03:32:04;;;;;;;14.32;2.38;;;;;;;13.94;100.00;100229.22;5110565;28;20023;-70
2022/10/25 03:34:30;;;;;;;6.57;2.38;;;;;;;13.89;100.00;100233.88;5110899;28;20187;-71
2022/10/25 03:36:57;;;;;;;3.85;2.15;;;;;;;13.90;100.00;100235.66;5111268;28;20216;-71
2022/10/25 03:39:23;;;;;;;9.02;2.13;;;;;;;13.89;100.00;100236.56;5111091;28;20032;-70
2022/10/25 03:41:49;;;;;;;4.05;2.13;;;;;;;13.90;100.00;100238.31;5111803;28;20229;-71
2022/10/25 03:44:14;;;;;;;4.97;2.05;;;;;;;13.87;100.00;100243.81;5111726;28;20091;-69
2022/10/25 03:46:40;;;;;;;3.15;1.80;;;;;;;13.85;100.00;100246.53;5111398;28;20023;-70
2022/10/25 03:49:05;;;;;;;12.93;2.63;;;;;;;13.87;100.00;100241.13;5111808;28;20027;-70
2022/10/25 03:51:30;;;;;;;6.28;2.58;;;;;;;13.86;100.00;100258.09;5111350;28;20050;-69
2022/10/25 03:53:56;;;;;;;6.50;2.33;;;;;;;13.80;100.00;100248.53;5111613;28;20138;-71
2022/10/25 03:56:22;;;;;;;5.68;2.08;;;;;;;13.83;100.00;100252.88;5111414;28;20051;-70
2022/10/25 03:58:47;;;;;;;9.02;2.28;;;;;;;13.85;100.00;100256.38;5111331;28;20107;-70
2022/10/25 04:01:14;;;;;;;6.97;2.38;;;;;;;13.86;100.00;100247.38;5091126;28;20090;-69
2022/10/25 04:03:40;;;;;;;9.77;2.88;;;;;;;13.90;100.00;100254.38;5091130;28;20024;-69
2022/10/25 04:06:05;;;;;;;3.63;2.10;;;;;;;13.94;100.00;100250.59;5091183;28;20546;-69
2022/10/25 04:08:31;;;;;;;12.98;2.75;;;;;;;13.98;100.00;100254.91;5091276;28;20375;-70
2022/10/25 04:10:56;;;;;;;8.40;2.20;;;;;;;14.01;100.00;100249.41;5091079;28;20031;-70
2022/10/25 04:13:21;;;;;;;11.07;1.88;;;;;;;14.03;100.00;100256.47;5091076;28;20020;-67
2022/10/25 04:15:47;;;;;;;8.80;2.40;;;;;;;14.05;100.00;100259.06;5091094;28;20051;-70
2022/10/25 04:18:12;;;;;;;15.88;2.42;;;;;;;14.06;100.00;100255.44;5091060;28;20028;-69
2022/10/25 04:20:38;;;;;;;14.77;2.67;;;;;;;14.10;100.00;100251.72;5090773;28;20031;-70
2022/10/25 04:23:03;;;;;;;14.82;2.50;;;;;;;14.14;100.00;100258.66;5090840;28;20566;-70
2022/10/25 04:25:28;;;;;;;4.82;1.83;;;;;;;14.16;100.00;100263.03;5091180;28;20066;-71
2022/10/25 04:27:56;;;;;;;6.63;2.47;;;;;;;14.20;100.00;100258.41;5091328;28;20046;-69
2022/10/25 04:30:21;;;;;;;4.03;1.80;;;;;;;14.21;100.00;100258.34;5091006;28;20043;-70
2022/10/25 04:32:47;;;;;;;9.88;1.83;;;;;;;14.26;100.00;100263.53;5091030;28;20062;-71
2022/10/25 04:35:12;;;;;;;4.80;1.77;;;;;;;14.28;100.00;100269.69;5090994;28;20020;-69
2022/10/25 04:37:38;;;;;;;4.20;1.38;;;;;;;14.26;100.00;100258.16;5091135;28;20031;-71
2022/10/25 04:40:04;;;;;;;7.25;2.58;;;;;;;14.26;100.00;100269.75;5090968;28;20463;-70
2022/10/25 04:42:33;;;;;;;6.97;2.17;;;;;;;14.24;100.00;100260.88;5090807;28;20093;-69
2022/10/25 04:44:59;;;;;;;4.07;2.10;;;;;;;14.25;100.00;100259.97;5091008;28;20055;-71
2022/10/25 04:47:24;;;;;;;5.32;1.92;;;;;;;14.23;100.00;100260.94;5090516;28;20534;-71
2022/10/25 04:49:49;;;;;;;5.25;1.67;;;;;;;14.20;100.00;100258.41;5090983;28;20096;-71
2022/10/25 04:52:15;;;;;;;6.18;1.80;;;;;;;14.12;100.00;100266.75;5094215;28;20049;-71
2022/10/25 04:54:40;;;;;;;3.55;1.65;;;;;;;14.09;100.00;100272.25;5094790;28;20051;-70
2022/10/25 04:57:06;;;;;;;4.03;1.60;;;;;;;14.06;100.00;100272.38;5094406;28;20067;-70
2022/10/25 04:59:31;;;;;;;2.85;1.60;;;;;;;14.05;100.00;100280.47;5094444;28;20079;-69
2022/10/25 05:01:57;;;;;;;2.72;1.70;;;;;;;14.03;100.00;100272.50;5094524;28;20483;-70
2022/10/25 05:04:22;;;;;;;4.30;1.95;;;;;;;14.06;100.00;100277.72;5094309;28;20020;-70
2022/10/25 05:06:47;;;;;;;5.45;1.90;;;;;;;14.05;100.00;100275.97;5094465;28;20020;-70
2022/10/25 05:09:13;;;;;;;4.50;2.13;;;;;;;14.04;100.00;100274.25;5094158;28;20102;-70
2022/10/25 05:11:38;;;;;;;6.35;1.75;;;;;;;14.03;100.00;100285.00;5093558;28;20374;-70
2022/10/25 05:14:04;;;;;;;7.65;1.95;;;;;;;14.00;100.00;100287.81;5093189;28;20035;-69
2022/10/25 05:16:33;;;;;;;26.33;7.15;;;;;;;13.98;100.00;100289.69;5093333;28;20035;-69
2022/10/25 05:18:59;;;;;;;7.93;2.42;;;;;;;13.95;100.00;100296.00;5093229;28;20056;-69
2022/10/25 05:21:29;;;;;;;5.65;1.83;;;;;;;13.93;100.00;100289.88;5093094;28;20024;-69
2022/10/25 05:23:55;;;;;;;3.53;1.70;;;;;;;13.88;100.00;100288.31;5093248;28;20404;-69
2022/10/25 05:26:21;;;;;;;3.17;1.80;;;;;;;13.93;100.00;100294.34;5093649;28;20399;-68
2022/10/25 05:28:48;;;;;;;5.00;2.10;;;;;;;13.95;100.00;100296.00;5093329;28;20024;-69
2022/10/25 05:31:15;;;;;;;4.80;1.80;;;;;;;13.98;100.00;100285.22;5093062;28;20076;-69
2022/10/25 05:33:43;;;;;;;6.15;2.15;;;;;;;13.97;100.00;100294.13;5093072;28;20544;-70
2022/10/25 05:36:10;;;;;;;4.30;1.80;;;;;;;14.00;100.00;100301.19;5092909;28;20028;-70
2022/10/25 05:38:35;;;;;;;9.63;1.77;;;;;;;14.02;100.00;100296.66;5092749;28;20544;-69
2022/10/25 05:41:01;;;;;;;57.67;6.78;;;;;;;14.03;100.00;100296.59;5092082;28;20102;-70
2022/10/25 05:43:27;;;;;;;10.48;3.50;;;;;;;14.02;100.00;100289.47;5092920;28;20032;-70
2022/10/25 05:46:01;;;;;;;5.95;2.70;;;;;;;14.12;100.00;100303.31;5093871;28;20035;-71
2022/10/25 05:48:27;;;;;;;4.50;2.13;;;;;;;14.12;100.00;100298.84;5075584;28;20024;-70
2022/10/25 05:50:52;;;;;;;4.63;1.90;;;;;;;14.15;100.00;100297.88;5075392;28;20073;-70
2022/10/25 05:53:18;;;;;;;8.38;2.40;;;;;;;14.16;100.00;100288.91;5093136;28;20012;-70
2022/10/25 05:55:43;;;;;;;5.05;2.40;;;;;;;14.15;100.00;100297.88;5092999;28;20031;-70
2022/10/25 05:58:09;;;;;;;4.05;2.03;;;;;;;14.09;100.00;100292.75;5093126;28;20040;-69
2022/10/25 06:00:34;;;;;;;4.57;1.98;;;;;;;14.07;100.00;100302.66;5093009;28;20099;-71
2022/10/25 06:03:03;;;;;;;4.35;2.25;;;;;;;14.05;100.00;100301.88;5092768;28;20478;-71
2022/10/25 06:05:28;;;;;;;6.25;1.90;;;;;;;14.02;100.00;100302.84;5092540;28;20031;-71
2022/10/25 06:07:54;;;;;;;10.63;2.88;;;;;;;13.98;100.00;100311.06;5090736;28;20027;-68
2022/10/25 06:10:19;;;;;;;5.60;2.30;;;;;;;13.96;100.00;100307.59;5090589;28;20031;-70
2022/10/25 06:12:47;;;;;;;5.50;1.85;;;;;;;13.93;100.00;100313.06;5092865;28;20028;-71
2022/10/25 06:15:13;;;;;;;4.88;1.85;;;;;;;13.89;100.00;100306.09;5093126;28;20024;-71
2022/10/25 06:17:38;;;;;;;4.35;2.03;;;;;;;13.86;100.00;100308.91;5092727;28;20043;-70
2022/10/25 06:20:04;;;;;;;3.28;2.03;;;;;;;13.86;100.00;100316.91;5092729;28;20016;-70
2022/10/25 06:22:29;;;;;;;4.18;2.00;;;;;;;13.86;100.00;100316.91;5092989;28;20106;-71
2022/10/25 06:24:55;;;;;;;4.60;2.10;;;;;;;13.83;100.00;100319.72;5092419;28;20106;-70
2022/10/25 06:27:20;;;;;;;7.07;1.98;;;;;;;13.81;100.00;100324.25;5092749;28;20471;-71
2022/10/25 06:29:46;;;;;;;4.90;1.95;;;;;;;13.81;100.00;100329.59;5092729;28;20028;-70
2022/10/25 06:32:11;;;;;;;5.45;2.65;;;;;;;13.80;100.00;100327.88;5092731;28;20026;-70
2022/10/25 06:34:36;;;;;;;5.05;2.30;;;;;;;13.79;100.00;100342.19;5092747;28;20386;-69
2022/10/25 06:37:03;;;;;;;3.40;2.03;;;;;;;13.80;100.00;100343.91;5092271;28;20024;-70
2022/10/25 06:39:28;;;;;;;4.35;2.85;;;;;;;13.81;100.00;100341.19;5081630;28;20799;-71
2022/10/25 06:41:53;;;;;;;4.97;2.08;;;;;;;13.88;100.00;100339.13;5084135;28;20107;-70
2022/10/25 06:44:19;;;;;;;4.57;1.85;;;;;;;13.93;100.00;100345.16;5079952;28;20025;-69
2022/10/25 06:46:44;;;;;;;7.55;2.33;;;;;;;13.95;100.00;100351.31;5076971;28;20028;-69
2022/10/25 06:49:09;;;;;;;4.95;2.28;;;;;;;14.02;100.00;100355.50;5078458;28;20016;-66
2022/10/25 06:51:35;;;;;;;6.65;2.33;;;;;;;14.20;100.00;100354.72;5079684;28;20101;-70
2022/10/25 06:54:04;;;;;;;4.68;2.28;;;;;;;14.82;100.00;100352.03;5074784;28;20032;-69
2022/10/25 06:56:30;;;;;;;6.45;2.35;;;;;;;15.10;100.00;100361.44;5078277;28;20746;-71
2022/10/25 06:58:55;;;;;;;6.82;2.15;;;;;;;15.44;100.00;100361.66;5082308;28;20040;-70
2022/10/25 07:01:22;;;;;;;8.35;2.70;;;;;;;15.57;100.00;100348.53;5080732;28;20063;-70
2022/10/25 07:03:49;;;;;;;5.05;2.00;;;;;;;15.48;100.00;100357.03;5081284;28;20024;-71
2022/10/25 07:06:17;;;;;;;5.15;1.85;;;;;;;15.19;100.00;100361.00;5091591;28;20306;-70
2022/10/25 07:08:45;;;;;;;3.65;2.40;;;;;;;15.63;100.00;100359.84;5077664;28;20040;-71
2022/10/25 07:11:18;;;;;;;6.28;2.30;;;;;;;17.75;100.00;100363.94;5074302;28;20035;-70
2022/10/25 07:13:44;;;;;;;4.25;2.47;;;;;;;19.84;91.79;100347.50;5076610;28;20031;-70
2022/10/25 07:16:12;;;;;;;3.70;1.90;;;;;;;21.53;78.60;100357.44;5070322;28;20548;-69
2022/10/25 07:18:38;;;;;;;3.42;1.80;;;;;;;22.75;67.47;100359.91;5078693;28;20024;-70
2022/10/25 07:21:06;;;;;;;7.43;1.80;;;;;;;23.85;61.67;100377.38;5078388;28;20025;-70
2022/10/25 07:23:33;;;;;;;4.90;2.05;;;;;;;24.64;56.25;100367.06;5080192;28;20104;-70
2022/10/25 07:25:59;;;;;;;4.18;1.98;;;;;;;25.39;53.55;100371.38;5078536;28;20028;-71
2022/10/25 07:28:25;;;;;;;3.80;1.77;;;;;;;25.98;51.04;100377.81;5078122;28;20081;-70
2022/10/25 07:30:51;;;;;;;6.63;1.58;;;;;;;26.17;49.30;100374.31;5056334;28;20115;-69
2022/10/25 07:33:18;;;;;;;1.65;1.25;;;;;;;26.52;48.18;100374.69;5079409;28;20047;-70
2022/10/25 07:35:45;;;;;;;4.60;1.30;;;;;;;26.91;47.36;100372.84;5076217;28;20028;-71
2022/10/25 07:38:11;;;;;;;5.93;1.48;;;;;;;27.20;46.02;100371.78;5081181;28;20028;-74
2022/10/25 07:40:37;;;;;;;2.85;1.00;;;;;;;27.45;44.79;100375.78;5073507;28;20089;-70
2022/10/25 07:43:02;;;;;;;4.93;1.10;;;;;;;27.26;45.17;100373.06;5077615;28;20032;-71
2022/10/25 07:45:28;;;;;;;1.85;1.02;;;;;;;27.54;44.90;100376.78;5080179;28;20029;-71
2022/10/25 07:47:53;;;;;;;3.20;1.05;;;;;;;27.78;44.39;100388.03;5078410;28;20028;-67
2022/10/25 07:50:18;;;;;;;3.50;1.60;;;;;;;28.21;43.76;100393.75;5073507;28;20610;-70
2022/10/25 07:52:45;;;;;;;3.40;1.30;;;;;;;28.27;43.89;100396.75;5076317;28;20150;-72
2022/10/25 07:55:11;;;;;;;3.53;1.75;;;;;;;28.58;42.61;100393.72;5078045;28;20035;-72
2022/10/25 07:57:36;;;;;;;6.75;2.10;;;;;;;28.73;42.48;100392.16;5072354;28;20049;-72
2022/10/25 08:00:02;;;;;;;4.82;1.80;;;;;;;28.77;42.56;100388.94;5078388;28;20028;-71
2022/10/25 08:02:28;;;;;;;3.17;0.93;;;;;;;29.17;41.60;100391.22;5073992;28;20035;-68
2022/10/25 08:04:53;;;;;;;2.75;1.00;;;;;;;29.16;41.34;100400.47;5076829;28;20027;-72
2022/10/25 08:07:18;;;;;;;2.13;0.98;;;;;;;28.49;41.98;100400.97;5079813;28;20032;-70
2022/10/25 08:09:44;;;;;;;1.20;0.70;;;;;;;28.43;43.06;100391.44;5077991;28;20024;-71
2022/10/25 08:12:09;;;;;;;1.85;1.00;;;;;;;28.52;43.15;100397.91;5075871;28;20484;-70
2022/10/25 08:14:35;;;;;;;3.65;0.90;;;;;;;28.37;43.24;100404.88;5079958;28;20040;-72
2022/10/25 08:17:00;;;;;;;1.85;0.90;;;;;;;29.13;42.47;100393.41;5074548;28;20440;-72
2022/10/25 08:19:25;;;;;;;3.75;1.02;;;;;;;29.46;42.24;100397.25;5077077;28;20371;-73
2022/10/25 08:21:51;;;;;;;4.72;1.60;;;;;;;29.67;41.99;100395.00;5077982;28;20046;-72
2022/10/25 08:24:16;;;;;;;5.10;1.42;;;;;;;29.47;41.60;100404.47;5077660;28;20456;-72
2022/10/25 08:26:41;;;;;;;4.28;1.10;;;;;;;29.66;41.57;100404.28;5078756;28;20031;-70
2022/10/25 08:29:07;;;;;;;4.78;0.98;;;;;;;29.70;42.40;100404.81;5080504;28;20016;-72
2022/10/25 08:31:32;;;;;;;4.47;1.10;;;;;;;29.71;41.61;100401.03;5078462;28;20028;-72
2022/10/25 08:33:58;;;;;;;1.98;0.90;;;;;;;29.90;41.27;100392.59;5081571;28;20427;-71
2022/10/25 08:36:25;;;;;;;4.90;0.90;;;;;;;30.11;40.38;100390.28;5078359;28;20035;-74
2022/10/25 08:38:50;;;;;;;3.33;0.90;;;;;;;29.24;42.10;100395.03;5077181;28;20360;-70
2022/10/25 08:41:42;;;;;;;3.30;1.10;;;;;;;29.06;42.87;100385.97;5080828;28;20043;-68
2022/10/25 08:44:22;;;;;;;3.92;0.95;;;;;;;28.83;43.05;100384.72;5077817;28;20086;-70
2022/10/25 08:46:57;;;;;;;3.33;1.45;;;;;;;28.85;42.99;100390.88;5080941;28;20052;-71
2022/10/25 08:49:56;;;;;;;5.10;1.25;;;;;;;28.61;42.95;100380.56;5078744;28;20034;-71
2022/10/25 08:52:52;;;;;;;4.63;1.13;;;;;;;28.07;44.07;100389.66;5079321;28;20028;-70
2022/10/25 08:55:43;;;;;;;3.28;0.80;;;;;;;28.00;44.85;100391.31;5063093;28;20038;-70
2022/10/25 08:58:27;;;;;;;3.92;1.08;;;;;;;27.08;46.66;100389.34;5076927;28;20741;-70
2022/10/25 09:00:53;;;;;;;4.55;1.25;;;;;;;26.92;48.04;100382.72;5078350;28;20468;-72
2022/10/25 09:03:24;;;;;;;5.22;1.38;;;;;;;26.50;49.58;100381.25;5079087;28;20027;-70
2022/10/25 09:06:14;;;;;;;4.53;1.15;;;;;;;25.76;51.36;100385.34;5078798;28;20032;-69
2022/10/25 09:09:04;;;;;;;5.00;1.60;;;;;;;24.96;53.73;100395.13;5079336;28;20371;-68
2022/10/25 09:12:04;;;;;;;4.65;1.60;;;;;;;23.93;57.58;100383.03;5077006;28;20189;-70
2022/10/25 09:14:33;;;;;;;3.88;1.30;;;;;;;22.96;60.71;100388.13;5080689;28;20036;-70
2022/10/25 09:17:15;;;;;;;3.00;1.05;;;;;;;22.25;64.83;100384.56;5078122;28;20029;-70
2022/10/25 09:19:50;;;;;;;1.73;1.07;;;;;;;22.69;66.67;100398.38;5077883;28;20035;-70
2022/10/25 09:22:27;;;;;;;4.75;1.25;;;;;;;23.03;63.43;100389.34;5078348;28;20432;-68
2022/10/25 09:25:12;;;;;;;2.08;0.90;;;;;;;23.31;62.47;100388.94;5077603;28;20020;-69
2022/10/25 09:27:49;;;;;;;4.10;0.95;;;;;;;24.14;59.88;100389.47;5076944;28;20029;-70
2022/10/25 09:30:14;;;;;;;4.95;1.25;;;;;;;24.23;59.68;100383.28;5076255;28;20025;-70
2022/10/25 09:33:00;;;;;;;3.13;1.60;;;;;;;24.92;56.54;100382.81;5078840;28;20021;-69
2022/10/25 09:35:39;;;;;;;4.15;1.02;;;;;;;25.25;53.78;100377.16;5077313;28;20032;-69
2022/10/25 09:38:09;;;;;;;3.38;1.50;;;;;;;25.50;54.73;100389.53;5078144;28;20821;-72
2022/10/25 09:40:47;;;;;;;3.38;1.10;;;;;;;25.96;54.45;100392.59;5077709;28;20087;-69
2022/10/25 09:43:16;;;;;;;6.43;1.35;;;;;;;26.07;53.14;100378.00;5081801;28;20038;-68
2022/10/25 09:45:53;;;;;;;4.38;1.33;;;;;;;26.22;52.38;100382.06;5078498;28;20028;-69
2022/10/25 09:48:27;;;;;;;5.75;1.10;;;;;;;26.27;53.09;100375.22;5078832;28;20020;-69
2022/10/25 09:50:59;;;;;;;3.65;1.25;;;;;;;25.95;52.96;100369.91;5080115;28;20901;-69
2022/10/25 09:53:25;;;;;;;4.45;0.90;;;;;;;25.80;52.35;100376.75;5079640;28;20024;-68
2022/10/25 09:55:58;;;;;;;4.53;1.23;;;;;;;25.91;52.75;100373.91;5079828;28;20567;-68
2022/10/25 09:58:27;;;;;;;2.92;1.10;;;;;;;26.03;53.53;100368.41;5077618;28;20342;-71
2022/10/25 10:00:55;;;;;;;2.20;0.90;;;;;;;26.00;51.91;100371.38;5080853;28;20016;-68
2022/10/25 10:03:22;;;;;;;3.75;1.20;;;;;;;26.12;52.42;100373.88;5079310;28;20021;-68
2022/10/25 10:05:59;;;;;;;2.55;0.90;;;;;;;25.73;52.57;100375.56;5080300;28;20062;-68
2022/10/25 10:08:25;;;;;;;2.45;0.85;;;;;;;25.84;52.89;100371.88;5077825;28;20016;-68
2022/10/25 10:10:52;;;;;;;2.97;0.98;;;;;;;26.01;53.11;100373.09;5078360;28;20032;-68
2022/10/25 10:13:30;;;;;;;3.70;1.00;;;;;;;25.87;51.91;100367.03;5078118;28;20500;-67
2022/10/25 10:15:58;;;;;;;4.20;0.88;;;;;;;25.92;52.67;100372.06;5077930;28;20037;-68
2022/10/25 10:18:32;;;;;;;7.43;1.10;;;;;;;25.86;51.75;100365.28;5076835;28;20031;-67
2022/10/25 10:21:10;;;;;;;4.93;1.20;;;;;;;26.42;52.53;100372.94;5079238;28;20036;-67
2022/10/25 10:23:47;;;;;;;8.27;1.20;;;;;;;26.40;51.27;100359.44;5080216;28;20035;-71
2022/10/25 10:26:34;;;;;;;2.38;0.88;;;;;;;26.33;50.48;100363.72;5075744;28;20344;-68
2022/10/25 10:29:13;;;;;;;15.70;1.98;;;;;;;26.04;52.75;100356.47;5076118;28;20032;-67
2022/10/25 10:31:42;;;;;;;4.80;1.27;;;;;;;26.29;51.68;100353.25;5076267;28;20081;-68
2022/10/25 10:34:35;;;;;;;1.95;0.80;;;;;;;26.47;50.50;100359.72;5074528;28;20030;-68
2022/10/25 10:37:14;;;;;;;4.35;1.17;;;;;;;26.30;53.28;100354.94;5075706;28;20036;-68
2022/10/25 10:40:15;;;;;;;3.78;1.05;;;;;;;26.59;52.37;100353.13;5075452;28;20032;-68
2022/10/25 10:42:41;;;;;;;3.05;1.30;;;;;;;26.15;53.31;100353.63;5067776;28;20040;-67
2022/10/25 10:45:06;;;;;;;3.17;0.90;;;;;;;25.63;54.75;100352.84;5077740;28;20896;-67
2022/10/25 10:48:00;;;;;;;2.75;0.90;;;;;;;25.75;54.13;100340.88;5079407;28;20039;-68
2022/10/25 10:50:30;;;;;;;4.97;1.10;;;;;;;26.11;54.84;100341.28;5079831;28;20038;-68
2022/10/25 10:53:16;;;;;;;3.58;0.90;;;;;;;26.37;54.86;100347.94;5077335;28;20051;-68
2022/10/25 10:55:44;;;;;;;5.38;0.93;;;;;;;26.95;51.60;100352.44;5075556;28;20041;-68
2022/10/25 10:58:21;;;;;;;2.55;0.80;;;;;;;27.32;50.86;100350.66;5080074;28;20036;-68
2022/10/25 11:00:50;;;;;;;2.10;1.10;;;;;;;27.74;48.10;100353.81;5076553;28;20050;-68
2022/10/25 11:03:40;;;;;;;4.82;1.02;;;;;;;27.66;48.43;100346.34;5076904;28;20076;-67
2022/10/25 11:06:13;;;;;;;3.00;0.77;;;;;;;27.91;49.23;100350.28;5078041;28;20032;-68
2022/10/25 11:08:40;;;;;;;2.70;0.88;;;;;;;28.47;47.26;100350.09;5075818;28;20036;-67
2022/10/25 11:11:23;;;;;;;4.18;1.10;;;;;;;28.34;46.23;100348.59;5075463;28;20043;-68
2022/10/25 11:13:56;;;;;;;;;;;;;;;28.72;45.05;100349.34;5075472;28;20038;-68
2022/10/25 11:16:31;;;;;;;3.73;0.83;;;;;;;28.81;45.52;100351.16;5073790;28;20351;-67
2022/10/25 11:18:57;;;;;;;3.15;1.08;;;;;;;28.86;46.63;100344.19;5075943;28;20029;-68
2022/10/25 11:21:53;;;;;;;2.22;1.02;;;;;;;28.96;44.94;100333.13;5076809;28;20876;-67
2022/10/25 11:24:47;;;;;;;4.07;1.00;;;;;;;29.10;44.29;100340.78;5075600;28;20020;-67
2022/10/25 11:27:21;;;;;;;4.72;0.80;;;;;;;29.18;43.23;100338.97;5077148;28;20125;-68
2022/10/25 11:30:16;;;;;;;2.75;1.15;;;;;;;29.26;44.59;100339.03;5074894;28;20024;-68
2022/10/25 11:33:15;;;;;;;2.63;0.95;;;;;;;29.25;44.31;100336.47;5073742;28;20435;-68